createdAt,value
2023-11-07T00:03:07.346Z,52.02
2023-11-07T00:08:10.261Z,51.83
2023-11-07T00:13:14.575Z,52.29
2023-11-07T00:18:17.471Z,52.60
2023-11-07T00:23:20.370Z,52.58
2023-11-07T00:28:26.568Z,52.56
2023-11-07T00:33:29.629Z,52.77
2023-11-07T00:38:32.727Z,52.98
2023-11-07T00:43:37.085Z,53.06
2023-11-07T00:48:40.011Z,53.20
2023-11-07T00:53:42.967Z,53.31
2023-11-07T00:58:48.715Z,53.34
2023-11-07T01:03:51.706Z,53.48
2023-11-07T01:08:54.675Z,53.41
2023-11-07T01:13:58.849Z,53.61
2023-11-07T01:19:02.080Z,53.64
2023-11-07T01:24:06.338Z,53.79
2023-11-07T01:29:10.556Z,53.98
2023-11-07T01:34:13.587Z,54.16
2023-11-07T01:39:16.538Z,54.38
2023-11-07T01:44:20.746Z,54.50
2023-11-07T01:49:24.036Z,54.75
2023-11-07T01:54:27.571Z,54.78
2023-11-07T01:59:31.924Z,54.90
2023-11-07T02:04:35.022Z,55.04
2023-11-07T02:09:37.939Z,55.04
2023-11-07T02:14:42.428Z,55.36
2023-11-07T02:19:45.356Z,55.35
2023-11-07T02:24:50.096Z,55.20
2023-11-07T02:29:52.944Z,55.31
2023-11-07T02:34:55.817Z,55.52
2023-11-07T02:40:00.792Z,55.57
2023-11-07T02:45:04.146Z,55.42
2023-11-07T02:50:08.994Z,55.52
2023-11-07T02:55:13.193Z,55.57
2023-11-07T03:00:16.922Z,55.41
2023-11-07T03:05:19.717Z,55.56
2023-11-07T03:10:23.894Z,55.68
2023-11-07T03:15:26.726Z,55.87
2023-11-07T03:20:29.538Z,55.99
2023-11-07T03:25:33.778Z,55.82
2023-11-07T03:30:36.598Z,56.03
2023-11-07T03:35:39.569Z,56.30
2023-11-07T03:40:43.990Z,56.27
2023-11-07T03:45:46.844Z,56.54
2023-11-07T03:50:50.879Z,56.44
2023-11-07T03:55:55.308Z,56.35
2023-11-07T04:00:58.666Z,56.61
2023-11-07T04:06:01.725Z,56.65
2023-11-07T04:11:06.672Z,56.46
2023-11-07T04:16:10.732Z,56.84
2023-11-07T04:21:14.178Z,56.90
2023-11-07T04:26:18.932Z,57.13
2023-11-07T04:31:24.190Z,57.10
2023-11-07T04:36:26.997Z,57.32
2023-11-07T04:41:31.521Z,57.16
2023-11-07T04:46:39.161Z,57.53
2023-11-07T04:51:42.652Z,57.18
2023-11-07T04:56:46.893Z,57.11
2023-11-07T05:01:50.656Z,57.07
2023-11-07T05:06:55.466Z,57.02
2023-11-07T05:12:00.564Z,57.11
2023-11-07T05:17:03.571Z,57.08
2023-11-07T05:22:06.717Z,56.97
2023-11-07T05:27:11.222Z,57.11
2023-11-07T05:32:14.590Z,57.09
2023-11-07T05:37:18.960Z,56.92
2023-11-07T05:42:23.308Z,57.12
2023-11-07T05:47:26.289Z,57.06
2023-11-07T05:52:29.465Z,57.08
2023-11-07T05:57:33.693Z,57.13
2023-11-07T06:02:47.759Z,57.19
2023-11-07T06:07:57.000Z,57.22
2023-11-07T06:13:04.626Z,57.03
2023-11-07T06:18:07.852Z,57.16
2023-11-07T06:23:10.924Z,57.01
2023-11-07T06:28:15.150Z,57.01
2023-11-07T06:33:18.185Z,57.13
2023-11-07T06:38:22.893Z,57.07
2023-11-07T06:43:27.610Z,57.21
2023-11-07T06:48:30.853Z,57.17
2023-11-07T06:53:34.054Z,57.24
2023-11-07T06:58:38.259Z,57.15
2023-11-07T07:03:41.450Z,57.15
2023-11-07T07:08:44.752Z,57.16
2023-11-07T07:13:49.095Z,56.93
2023-11-07T07:18:52.281Z,57.11
2023-11-07T07:23:56.006Z,56.95
2023-11-07T07:29:00.933Z,56.90
2023-11-07T07:34:06.109Z,57.03
2023-11-07T07:39:09.560Z,56.75
2023-11-07T07:44:14.429Z,56.82
2023-11-07T07:49:17.438Z,57.24
2023-11-07T07:54:43.296Z,56.72
2023-11-07T07:59:48.327Z,45.05
2023-11-07T08:04:52.189Z,44.06
2023-11-07T08:09:55.303Z,44.82
2023-11-07T08:14:59.687Z,45.41
2023-11-07T08:20:02.642Z,47.51
2023-11-07T08:25:07.055Z,47.56
2023-11-07T08:30:14.421Z,47.70
2023-11-07T08:35:19.643Z,47.79
2023-11-07T08:40:24.777Z,48.12
2023-11-07T08:45:30.133Z,48.42
2023-11-07T08:50:33.800Z,48.63
2023-11-07T08:55:37.921Z,48.73
2023-11-07T09:00:45.110Z,48.98
2023-11-07T09:05:48.972Z,49.20
2023-11-07T09:10:51.968Z,49.47
2023-11-07T09:15:56.647Z,49.40
2023-11-07T09:20:59.698Z,49.75
2023-11-07T09:26:04.377Z,49.77
2023-11-07T09:31:08.844Z,49.86
2023-11-07T09:36:11.989Z,49.73
2023-11-07T09:41:17.645Z,49.93
2023-11-07T09:46:25.084Z,49.80
2023-11-07T09:51:28.893Z,49.68
2023-11-07T09:56:33.018Z,49.90
2023-11-07T10:01:37.505Z,49.97
2023-11-07T10:06:40.581Z,49.94
2023-11-07T10:11:47.515Z,49.85
2023-11-07T10:16:58.190Z,49.65
2023-11-07T10:22:05.118Z,49.85
2023-11-07T10:27:12.995Z,51.80
2023-11-07T10:32:18.094Z,53.69
2023-11-07T10:37:22.346Z,53.39
2023-11-07T10:42:30.703Z,54.66
2023-11-07T10:47:39.275Z,56.34
2023-11-07T10:52:42.340Z,56.60
2023-11-07T10:57:50.998Z,57.14
2023-11-07T11:02:56.847Z,56.99
2023-11-07T11:08:01.290Z,55.56
2023-11-07T11:13:05.188Z,55.23
2023-11-07T11:18:11.800Z,54.80
2023-11-07T11:23:20.438Z,53.89
2023-11-07T11:28:38.136Z,53.45
2023-11-07T11:33:43.889Z,53.68
2023-11-07T11:38:47.411Z,53.76
2023-11-07T11:44:14.048Z,53.69
2023-11-07T11:49:19.347Z,53.76
2023-11-07T11:54:53.455Z,53.86
2023-11-07T12:00:00.303Z,54.10
2023-11-07T12:05:17.073Z,55.69
2023-11-07T12:10:22.093Z,55.54
2023-11-07T12:15:27.231Z,56.18
2023-11-07T12:20:32.797Z,55.55
2023-11-07T12:25:35.741Z,55.73
2023-11-07T12:30:38.628Z,55.53
2023-11-07T12:35:42.989Z,55.51
2023-11-07T12:40:45.908Z,55.59
2023-11-07T12:45:49.261Z,55.46
2023-11-07T12:50:54.182Z,55.08
2023-11-07T12:55:57.015Z,54.86
2023-11-07T13:01:00.445Z,54.54
2023-11-07T13:06:06.063Z,54.56
2023-11-07T13:11:10.555Z,54.53
2023-11-07T13:16:13.861Z,46.61
2023-11-07T13:21:18.801Z,47.25
2023-11-07T13:26:22.095Z,47.95
2023-11-07T13:31:24.955Z,48.52
2023-11-07T13:36:29.181Z,47.46
2023-11-07T13:41:33.533Z,47.77
2023-11-07T13:46:36.384Z,49.19
2023-11-07T13:51:40.749Z,50.37
2023-11-07T13:56:43.635Z,50.87
2023-11-07T14:01:46.641Z,51.75
2023-11-07T14:06:50.970Z,52.27
2023-11-07T14:11:54.163Z,52.70
2023-11-07T14:16:57.443Z,53.45
2023-11-07T14:22:01.871Z,53.32
2023-11-07T14:27:06.625Z,53.51
2023-11-07T14:32:09.820Z,53.56
2023-11-07T14:37:14.262Z,54.16
2023-11-07T14:42:17.629Z,53.90
2023-11-07T14:47:22.876Z,54.07
2023-11-07T14:52:29.099Z,54.15
2023-11-07T14:57:32.086Z,54.01
2023-11-07T15:02:35.973Z,54.20
2023-11-07T15:07:40.321Z,54.32
2023-11-07T15:12:43.238Z,54.45
2023-11-07T15:17:46.205Z,54.34
2023-11-07T15:22:50.417Z,54.29
2023-11-07T15:27:53.427Z,54.38
2023-11-07T15:32:58.528Z,54.31
2023-11-07T15:38:03.554Z,54.57
2023-11-07T15:43:06.920Z,54.71
2023-11-07T15:48:11.651Z,54.69
2023-11-07T15:53:16.549Z,54.61
2023-11-07T15:58:19.336Z,54.81
2023-11-07T16:03:22.360Z,54.92
2023-11-07T16:08:27.196Z,55.07
2023-11-07T16:13:30.535Z,55.55
2023-11-07T16:18:33.504Z,55.68
2023-11-07T16:23:37.794Z,55.81
2023-11-07T16:28:41.832Z,55.78
2023-11-07T16:33:44.895Z,56.13
2023-11-07T16:38:49.312Z,56.20
2023-11-07T16:43:52.363Z,56.40
2023-11-07T16:48:55.343Z,56.20
2023-11-07T16:53:59.997Z,56.12
2023-11-07T16:59:02.888Z,56.23
2023-11-07T17:04:06.150Z,56.49
2023-11-07T17:09:10.907Z,56.23
2023-11-07T17:14:13.829Z,55.91
2023-11-07T17:19:17.226Z,55.84
2023-11-07T17:24:26.346Z,55.33
2023-11-07T17:29:30.297Z,55.16
2023-11-07T17:34:33.143Z,55.25
2023-11-07T17:39:39.161Z,54.90
2023-11-07T17:44:42.562Z,54.85
2023-11-07T17:49:47.802Z,55.03
2023-11-07T17:54:52.079Z,55.02
2023-11-07T17:59:55.454Z,54.83
2023-11-07T18:04:58.394Z,55.01
2023-11-07T18:10:02.886Z,54.68
2023-11-07T18:15:06.659Z,54.78
2023-11-07T18:20:13.083Z,54.50
2023-11-07T18:25:17.777Z,54.36
2023-11-07T18:30:21.062Z,54.09
2023-11-07T18:35:24.036Z,53.72
2023-11-07T18:40:28.400Z,53.32
2023-11-07T18:45:31.280Z,53.28
2023-11-07T18:50:34.316Z,52.89
2023-11-07T18:55:38.749Z,53.21
2023-11-07T19:00:43.499Z,52.83
2023-11-07T19:05:46.329Z,53.01
2023-11-07T19:10:50.649Z,53.08
2023-11-07T19:15:53.623Z,53.04
2023-11-07T19:20:56.520Z,52.97
2023-11-07T19:26:00.706Z,53.10
2023-11-07T19:31:04.086Z,52.89
2023-11-07T19:36:08.588Z,52.38
2023-11-07T19:41:13.640Z,52.60
2023-11-07T19:46:16.565Z,52.89
2023-11-07T19:51:19.602Z,52.34
2023-11-07T19:56:23.884Z,52.66
2023-11-07T20:01:26.679Z,52.61
2023-11-07T20:06:30.202Z,52.64
2023-11-07T20:11:36.135Z,52.75
2023-11-07T20:16:39.296Z,52.91
2023-11-07T20:21:42.361Z,53.03
2023-11-07T20:26:46.559Z,52.92
2023-11-07T20:31:49.434Z,53.07
2023-11-07T20:36:52.368Z,53.15
2023-11-07T20:41:56.567Z,53.00
2023-11-07T20:47:00.188Z,52.91
2023-11-07T20:52:09.453Z,52.66
2023-11-07T20:57:22.505Z,52.51
2023-11-07T21:02:26.342Z,52.30
2023-11-07T21:07:29.431Z,52.34
2023-11-07T21:12:34.137Z,52.20
2023-11-07T21:17:37.100Z,52.37
2023-11-07T21:22:40.263Z,52.36
2023-11-07T21:27:44.785Z,52.05
2023-11-07T21:32:47.791Z,52.11
2023-11-07T21:37:51.594Z,52.18
2023-11-07T21:42:55.778Z,51.87
2023-11-07T21:47:59.202Z,51.75
2023-11-07T21:53:02.163Z,51.89
2023-11-07T21:58:08.124Z,51.85
2023-11-07T22:03:12.898Z,51.47
2023-11-07T22:08:15.988Z,51.25
2023-11-07T22:13:21.653Z,51.42
2023-11-07T22:18:26.308Z,51.35
2023-11-07T22:23:29.413Z,51.55
2023-11-07T22:28:33.617Z,51.30
2023-11-07T22:33:36.508Z,51.04
2023-11-07T22:38:39.429Z,51.31
2023-11-07T22:43:43.710Z,51.24
2023-11-07T22:48:48.386Z,51.12
2023-11-07T22:53:51.223Z,50.95
2023-11-07T22:58:55.978Z,50.94
2023-11-07T23:03:58.764Z,51.05
2023-11-07T23:09:01.583Z,51.35
2023-11-07T23:14:06.013Z,51.72
2023-11-07T23:19:09.008Z,51.77
2023-11-07T23:24:12.083Z,51.98
2023-11-07T23:29:18.148Z,52.39
2023-11-07T23:34:21.261Z,52.62
2023-11-07T23:39:25.416Z,52.77
2023-11-07T23:44:29.677Z,52.99
2023-11-07T23:49:32.656Z,53.47
2023-11-07T23:54:35.497Z,53.42
2023-11-07T23:59:39.666Z,53.70
